sensor_id;sensor_type;location;lat;lon;timestamp;pressure;altitude;pressure_sealevel;temperature;humidity
32638;BME280;19045;52.268;10.506;2023-01-26T00:01:48;101512.06;;;-1.10;100.00
32638;BME280;19045;52.268;10.506;2023-01-26T00:04:18;101498.19;;;-1.12;100.00
32638;BME280;19045;52.268;10.506;2023-01-26T00:06:46;101498.69;;;-1.08;100.00
32638;BME280;19045;52.268;10.506;2023-01-26T00:09:14;101496.06;;;-1.08;100.00
32638;BME280;19045;52.268;10.506;2023-01-26T00:11:43;101486.66;;;-1.11;100.00
32638;BME280;19045;52.268;10.506;2023-01-26T00:14:11;101486.88;;;-1.04;100.00
32638;BME280;19045;52.268;10.506;2023-01-26T00:16:39;101481.44;;;-1.02;100.00
32638;BME280;19045;52.268;10.506;2023-01-26T00:19:08;101478.44;;;-1.08;100.00
32638;BME280;19045;52.268;10.506;2023-01-26T00:21:37;101471.06;;;-1.04;100.00
32638;BME280;19045;52.268;10.506;2023-01-26T00:24:06;101476.44;;;-1.14;100.00
32638;BME280;19045;52.268;10.506;2023-01-26T00:26:35;101476.38;;;-1.22;100.00
32638;BME280;19045;52.268;10.506;2023-01-26T00:29:03;101470.75;;;-1.27;100.00
32638;BME280;19045;52.268;10.506;2023-01-26T00:31:31;101466.25;;;-1.34;100.00
32638;BME280;19045;52.268;10.506;2023-01-26T00:33:59;101467.13;;;-1.26;100.00
32638;BME280;19045;52.268;10.506;2023-01-26T00:36:27;101462.34;;;-1.22;100.00
32638;BME280;19045;52.268;10.506;2023-01-26T00:38:57;101465.09;;;-1.32;100.00
32638;BME280;19045;52.268;10.506;2023-01-26T00:41:27;101458.13;;;-1.41;100.00
32638;BME280;19045;52.268;10.506;2023-01-26T00:44:12;101457.38;;;-1.33;100.00
32638;BME280;19045;52.268;10.506;2023-01-26T00:46:40;101464.78;;;-1.29;100.00
32638;BME280;19045;52.268;10.506;2023-01-26T00:49:09;101454.63;;;-1.24;100.00
32638;BME280;19045;52.268;10.506;2023-01-26T00:51:37;101461.56;;;-1.23;100.00
32638;BME280;19045;52.268;10.506;2023-01-26T00:54:07;101457.41;;;-1.25;100.00
32638;BME280;19045;52.268;10.506;2023-01-26T01:01:45;101460.66;;;-1.57;100.00
32638;BME280;19045;52.268;10.506;2023-01-26T01:04:13;101464.03;;;-1.65;100.00
32638;BME280;19045;52.268;10.506;2023-01-26T01:06:40;101461.25;;;-1.63;100.00
32638;BME280;19045;52.268;10.506;2023-01-26T01:09:08;101463.72;;;-1.44;100.00
32638;BME280;19045;52.268;10.506;2023-01-26T01:11:35;101449.34;;;-1.49;100.00
32638;BME280;19045;52.268;10.506;2023-01-26T01:14:01;101454.44;;;-1.48;100.00
32638;BME280;19045;52.268;10.506;2023-01-26T01:16:28;101445.72;;;-1.48;100.00
32638;BME280;19045;52.268;10.506;2023-01-26T01:18:55;101456.16;;;-1.39;100.00
32638;BME280;19045;52.268;10.506;2023-01-26T01:21:22;101449.91;;;-1.38;100.00
32638;BME280;19045;52.268;10.506;2023-01-26T01:23:49;101444.84;;;-1.31;100.00
32638;BME280;19045;52.268;10.506;2023-01-26T01:26:17;101452.44;;;-1.28;100.00
32638;BME280;19045;52.268;10.506;2023-01-26T01:28:44;101438.50;;;-1.21;100.00
32638;BME280;19045;52.268;10.506;2023-01-26T01:31:12;101442.59;;;-1.26;100.00
32638;BME280;19045;52.268;10.506;2023-01-26T01:33:39;101441.56;;;-1.33;100.00
32638;BME280;19045;52.268;10.506;2023-01-26T01:36:08;101437.63;;;-1.29;100.00
32638;BME280;19045;52.268;10.506;2023-01-26T01:38:35;101436.50;;;-1.27;100.00
32638;BME280;19045;52.268;10.506;2023-01-26T01:41:02;101437.31;;;-1.26;100.00
32638;BME280;19045;52.268;10.506;2023-01-26T01:43:30;101441.28;;;-1.22;100.00
32638;BME280;19045;52.268;10.506;2023-01-26T01:45:58;101427.09;;;-1.29;100.00
32638;BME280;19045;52.268;10.506;2023-01-26T01:48:28;101440.28;;;-1.29;100.00
32638;BME280;19045;52.268;10.506;2023-01-26T01:50:59;101432.97;;;-1.35;100.00
32638;BME280;19045;52.268;10.506;2023-01-26T01:53:31;101431.84;;;-1.33;100.00
32638;BME280;19045;52.268;10.506;2023-01-26T01:56:02;101433.69;;;-1.25;100.00
32638;BME280;19045;52.268;10.506;2023-01-26T01:58:32;101431.22;;;-1.27;100.00
32638;BME280;19045;52.268;10.506;2023-01-26T02:01:01;101423.00;;;-1.24;100.00
32638;BME280;19045;52.268;10.506;2023-01-26T02:03:28;101424.50;;;-1.21;100.00
32638;BME280;19045;52.268;10.506;2023-01-26T02:05:59;101420.81;;;-1.28;100.00
32638;BME280;19045;52.268;10.506;2023-01-26T02:08:30;101410.63;;;-1.49;100.00
32638;BME280;19045;52.268;10.506;2023-01-26T02:11:01;101406.88;;;-1.46;100.00
32638;BME280;19045;52.268;10.506;2023-01-26T02:13:32;101400.69;;;-1.37;100.00
32638;BME280;19045;52.268;10.506;2023-01-26T02:15:59;101401.66;;;-1.38;100.00
32638;BME280;19045;52.268;10.506;2023-01-26T02:18:26;101401.34;;;-1.35;100.00
32638;BME280;19045;52.268;10.506;2023-01-26T02:20:56;101395.47;;;-1.29;100.00
32638;BME280;19045;52.268;10.506;2023-01-26T02:23:37;101388.34;;;-1.37;100.00
32638;BME280;19045;52.268;10.506;2023-01-26T02:26:10;101386.88;;;-1.31;100.00
32638;BME280;19045;52.268;10.506;2023-01-26T02:28:39;101389.47;;;-1.39;100.00
32638;BME280;19045;52.268;10.506;2023-01-26T02:31:06;101388.91;;;-1.51;100.00
32638;BME280;19045;52.268;10.506;2023-01-26T02:33:33;101388.69;;;-1.58;100.00
32638;BME280;19045;52.268;10.506;2023-01-26T02:36:00;101391.56;;;-1.69;100.00
32638;BME280;19045;52.268;10.506;2023-01-26T02:38:30;101391.56;;;-1.69;100.00
32638;BME280;19045;52.268;10.506;2023-01-26T02:41:03;101393.47;;;-1.79;100.00
32638;BME280;19045;52.268;10.506;2023-01-26T02:43:32;101395.00;;;-1.76;100.00
32638;BME280;19045;52.268;10.506;2023-01-26T02:45:58;101386.47;;;-1.70;100.00
32638;BME280;19045;52.268;10.506;2023-01-26T02:48:24;101396.47;;;-1.56;100.00
32638;BME280;19045;52.268;10.506;2023-01-26T02:51:09;101396.97;;;-1.52;100.00
32638;BME280;19045;52.268;10.506;2023-01-26T02:53:36;101385.59;;;-1.53;100.00
32638;BME280;19045;52.268;10.506;2023-01-26T02:56:02;101389.72;;;-1.76;100.00
32638;BME280;19045;52.268;10.506;2023-01-26T02:58:28;101390.69;;;-1.77;100.00
32638;BME280;19045;52.268;10.506;2023-01-26T03:00:56;101382.88;;;-1.87;100.00
32638;BME280;19045;52.268;10.506;2023-01-26T03:03:25;101377.47;;;-1.85;100.00
32638;BME280;19045;52.268;10.506;2023-01-26T03:06:06;101376.34;;;-1.83;100.00
32638;BME280;19045;52.268;10.506;2023-01-26T03:08:33;101375.53;;;-2.01;100.00
32638;BME280;19045;52.268;10.506;2023-01-26T03:10:59;101368.78;;;-2.03;100.00
32638;BME280;19045;52.268;10.506;2023-01-26T03:13:26;101365.75;;;-2.09;100.00
32638;BME280;19045;52.268;10.506;2023-01-26T03:15:53;101360.03;;;-2.04;100.00
32638;BME280;19045;52.268;10.506;2023-01-26T03:18:22;101359.38;;;-2.06;100.00
32638;BME280;19045;52.268;10.506;2023-01-26T03:21:04;101361.00;;;-2.05;100.00
32638;BME280;19045;52.268;10.506;2023-01-26T03:23:49;101367.19;;;-2.14;100.00
32638;BME280;19045;52.268;10.506;2023-01-26T03:26:33;101365.47;;;-2.05;100.00
32638;BME280;19045;52.268;10.506;2023-01-26T03:29:17;101357.19;;;-2.11;100.00
32638;BME280;19045;52.268;10.506;2023-01-26T03:31:44;101362.91;;;-2.15;100.00
32638;BME280;19045;52.268;10.506;2023-01-26T03:34:12;101362.31;;;-2.27;100.00
32638;BME280;19045;52.268;10.506;2023-01-26T03:36:38;101359.31;;;-2.32;100.00
32638;BME280;19045;52.268;10.506;2023-01-26T03:39:05;101364.13;;;-2.27;100.00
32638;BME280;19045;52.268;10.506;2023-01-26T03:41:31;101361.66;;;-2.29;100.00
32638;BME280;19045;52.268;10.506;2023-01-26T03:44:15;101366.09;;;-2.29;100.00
32638;BME280;19045;52.268;10.506;2023-01-26T03:46:59;101371.28;;;-2.20;100.00
32638;BME280;19045;52.268;10.506;2023-01-26T03:49:45;101361.09;;;-2.15;100.00
32638;BME280;19045;52.268;10.506;2023-01-26T03:52:30;101370.66;;;-2.14;100.00
32638;BME280;19045;52.268;10.506;2023-01-26T03:55:14;101365.53;;;-2.15;100.00
32638;BME280;19045;52.268;10.506;2023-01-26T03:57:58;101359.16;;;-2.13;100.00
32638;BME280;19045;52.268;10.506;2023-01-26T04:00:25;101360.44;;;-2.17;100.00
32638;BME280;19045;52.268;10.506;2023-01-26T04:02:51;101360.59;;;-2.18;100.00
32638;BME280;19045;52.268;10.506;2023-01-26T04:05:37;101362.91;;;-2.15;100.00
32638;BME280;19045;52.268;10.506;2023-01-26T04:08:20;101358.16;;;-2.12;100.00
32638;BME280;19045;52.268;10.506;2023-01-26T04:10:53;101349.97;;;-2.09;100.00
32638;BME280;19045;52.268;10.506;2023-01-26T04:13:22;101350.34;;;-2.03;100.00
32638;BME280;19045;52.268;10.506;2023-01-26T04:16:08;101345.22;;;-2.05;100.00
32638;BME280;19045;52.268;10.506;2023-01-26T04:18:52;101349.59;;;-1.96;100.00
32638;BME280;19045;52.268;10.506;2023-01-26T04:21:38;101351.00;;;-2.01;100.00
32638;BME280;19045;52.268;10.506;2023-01-26T04:24:05;101340.13;;;-2.06;100.00
32638;BME280;19045;52.268;10.506;2023-01-26T04:26:35;101343.22;;;-2.11;100.00
32638;BME280;19045;52.268;10.506;2023-01-26T04:29:03;101339.44;;;-2.09;100.00
32638;BME280;19045;52.268;10.506;2023-01-26T04:31:30;101338.16;;;-2.04;100.00
32638;BME280;19045;52.268;10.506;2023-01-26T04:33:57;101342.59;;;-2.05;100.00
32638;BME280;19045;52.268;10.506;2023-01-26T04:36:24;101340.25;;;-2.08;100.00
32638;BME280;19045;52.268;10.506;2023-01-26T04:38:52;101338.16;;;-2.04;100.00
32638;BME280;19045;52.268;10.506;2023-01-26T04:41:18;101334.38;;;-2.02;100.00
32638;BME280;19045;52.268;10.506;2023-01-26T04:43:45;101340.03;;;-1.97;100.00
32638;BME280;19045;52.268;10.506;2023-01-26T04:46:11;101332.03;;;-1.87;100.00
32638;BME280;19045;52.268;10.506;2023-01-26T04:48:38;101326.13;;;-1.89;100.00
32638;BME280;19045;52.268;10.506;2023-01-26T04:51:06;101324.28;;;-1.89;100.00
32638;BME280;19045;52.268;10.506;2023-01-26T04:53:33;101322.13;;;-1.93;100.00
32638;BME280;19045;52.268;10.506;2023-01-26T04:56:01;101316.47;;;-1.98;100.00
32638;BME280;19045;52.268;10.506;2023-01-26T04:58:28;101317.63;;;-2.01;100.00
32638;BME280;19045;52.268;10.506;2023-01-26T05:00:56;101308.53;;;-2.06;100.00
32638;BME280;19045;52.268;10.506;2023-01-26T05:03:25;101320.56;;;-2.04;100.00
32638;BME280;19045;52.268;10.506;2023-01-26T05:05:53;101323.06;;;-2.02;100.00
32638;BME280;19045;52.268;10.506;2023-01-26T05:08:21;101316.13;;;-2.03;100.00
32638;BME280;19045;52.268;10.506;2023-01-26T05:10:47;101311.69;;;-2.03;100.00
32638;BME280;19045;52.268;10.506;2023-01-26T05:13:15;101315.38;;;-1.96;100.00
32638;BME280;19045;52.268;10.506;2023-01-26T05:15:42;101311.38;;;-2.00;100.00
32638;BME280;19045;52.268;10.506;2023-01-26T05:18:09;101311.59;;;-1.93;100.00
32638;BME280;19045;52.268;10.506;2023-01-26T05:20:35;101314.44;;;-1.87;100.00
32638;BME280;19045;52.268;10.506;2023-01-26T05:23:02;101301.47;;;-1.80;100.00
32638;BME280;19045;52.268;10.506;2023-01-26T05:25:29;101306.19;;;-1.66;100.00
32638;BME280;19045;52.268;10.506;2023-01-26T05:27:55;101313.38;;;-1.68;100.00
32638;BME280;19045;52.268;10.506;2023-01-26T05:30:23;101313.50;;;-1.78;100.00
32638;BME280;19045;52.268;10.506;2023-01-26T05:32:50;101323.41;;;-1.72;100.00
32638;BME280;19045;52.268;10.506;2023-01-26T05:35:16;101323.56;;;-1.73;100.00
32638;BME280;19045;52.268;10.506;2023-01-26T05:37:43;101320.13;;;-1.74;100.00
32638;BME280;19045;52.268;10.506;2023-01-26T05:40:11;101317.06;;;-1.87;100.00
32638;BME280;19045;52.268;10.506;2023-01-26T05:42:37;101319.53;;;-1.85;100.00
32638;BME280;19045;52.268;10.506;2023-01-26T05:45:05;101324.59;;;-1.92;100.00
32638;BME280;19045;52.268;10.506;2023-01-26T05:47:33;101330.53;;;-1.90;100.00
32638;BME280;19045;52.268;10.506;2023-01-26T05:50:00;101334.91;;;-1.98;100.00
32638;BME280;19045;52.268;10.506;2023-01-26T05:52:26;101334.53;;;-1.86;100.00
32638;BME280;19045;52.268;10.506;2023-01-26T05:54:53;101334.34;;;-1.84;100.00
32638;BME280;19045;52.268;10.506;2023-01-26T05:57:20;101330.16;;;-1.95;100.00
32638;BME280;19045;52.268;10.506;2023-01-26T05:59:46;101331.63;;;-2.00;100.00
32638;BME280;19045;52.268;10.506;2023-01-26T06:02:13;101330.03;;;-1.93;100.00
32638;BME280;19045;52.268;10.506;2023-01-26T06:04:41;101327.84;;;-1.98;100.00
32638;BME280;19045;52.268;10.506;2023-01-26T06:07:08;101328.84;;;-1.99;100.00
32638;BME280;19045;52.268;10.506;2023-01-26T06:09:37;101330.75;;;-1.83;100.00
32638;BME280;19045;52.268;10.506;2023-01-26T06:12:04;101332.25;;;-1.81;100.00
32638;BME280;19045;52.268;10.506;2023-01-26T06:14:31;101335.31;;;-1.85;100.00
32638;BME280;19045;52.268;10.506;2023-01-26T06:16:57;101333.22;;;-1.82;100.00
32638;BME280;19045;52.268;10.506;2023-01-26T06:19:24;101335.94;;;-1.91;100.00
32638;BME280;19045;52.268;10.506;2023-01-26T06:21:52;101330.34;;;-1.96;100.00
32638;BME280;19045;52.268;10.506;2023-01-26T06:24:18;101335.81;;;-1.90;100.00
32638;BME280;19045;52.268;10.506;2023-01-26T06:26:46;101336.38;;;-1.78;100.00
32638;BME280;19045;52.268;10.506;2023-01-26T06:29:13;101336.88;;;-1.75;100.00
32638;BME280;19045;52.268;10.506;2023-01-26T06:31:40;101345.06;;;-1.86;100.00
32638;BME280;19045;52.268;10.506;2023-01-26T06:34:09;101346.38;;;-1.82;100.00
32638;BME280;19045;52.268;10.506;2023-01-26T06:36:36;101341.44;;;-1.85;100.00
32638;BME280;19045;52.268;10.506;2023-01-26T06:39:04;101348.88;;;-1.80;100.00
32638;BME280;19045;52.268;10.506;2023-01-26T06:41:30;101350.53;;;-1.79;100.00
32638;BME280;19045;52.268;10.506;2023-01-26T06:43:58;101351.72;;;-1.74;100.00
32638;BME280;19045;52.268;10.506;2023-01-26T06:46:24;101350.22;;;-1.76;100.00
32638;BME280;19045;52.268;10.506;2023-01-26T06:48:51;101345.63;;;-1.74;100.00
32638;BME280;19045;52.268;10.506;2023-01-26T06:51:42;101345.94;;;-1.77;100.00
32638;BME280;19045;52.268;10.506;2023-01-26T06:54:13;101349.22;;;-1.75;100.00
32638;BME280;19045;52.268;10.506;2023-01-26T06:56:40;101346.56;;;-1.83;100.00
32638;BME280;19045;52.268;10.506;2023-01-26T06:59:07;101342.56;;;-1.87;100.00
32638;BME280;19045;52.268;10.506;2023-01-26T07:01:36;101342.25;;;-1.84;100.00
32638;BME280;19045;52.268;10.506;2023-01-26T07:04:03;101344.47;;;-1.72;100.00
32638;BME280;19045;52.268;10.506;2023-01-26T07:06:30;101351.53;;;-1.72;100.00
32638;BME280;19045;52.268;10.506;2023-01-26T07:08:56;101350.63;;;-1.63;100.00
32638;BME280;19045;52.268;10.506;2023-01-26T07:11:24;101349.19;;;-1.58;100.00
32638;BME280;19045;52.268;10.506;2023-01-26T07:13:51;101349.25;;;-1.49;100.00
32638;BME280;19045;52.268;10.506;2023-01-26T07:16:17;101346.31;;;-1.38;100.00
32638;BME280;19045;52.268;10.506;2023-01-26T07:18:44;101349.78;;;-1.38;100.00
32638;BME280;19045;52.268;10.506;2023-01-26T07:21:12;101353.72;;;-1.42;100.00
32638;BME280;19045;52.268;10.506;2023-01-26T07:23:39;101355.69;;;-1.44;100.00
32638;BME280;19045;52.268;10.506;2023-01-26T07:26:06;101347.38;;;-1.57;100.00
32638;BME280;19045;52.268;10.506;2023-01-26T07:28:34;101351.56;;;-1.46;100.00
32638;BME280;19045;52.268;10.506;2023-01-26T07:31:01;101353.31;;;-1.55;100.00
32638;BME280;19045;52.268;10.506;2023-01-26T07:33:29;101358.78;;;-1.48;100.00
32638;BME280;19045;52.268;10.506;2023-01-26T07:35:57;101363.19;;;-1.57;100.00
32638;BME280;19045;52.268;10.506;2023-01-26T07:38:23;101355.31;;;-1.49;100.00
32638;BME280;19045;52.268;10.506;2023-01-26T07:40:50;101358.84;;;-1.40;100.00
32638;BME280;19045;52.268;10.506;2023-01-26T07:43:17;101352.53;;;-1.47;100.00
32638;BME280;19045;52.268;10.506;2023-01-26T07:45:45;101358.63;;;-1.47;100.00
32638;BME280;19045;52.268;10.506;2023-01-26T07:48:12;101361.41;;;-1.48;100.00
32638;BME280;19045;52.268;10.506;2023-01-26T07:50:40;101362.97;;;-1.38;100.00
32638;BME280;19045;52.268;10.506;2023-01-26T07:53:06;101376.72;;;-1.18;100.00
32638;BME280;19045;52.268;10.506;2023-01-26T07:55:33;101375.25;;;-1.21;100.00
32638;BME280;19045;52.268;10.506;2023-01-26T07:58:00;101368.09;;;-1.36;100.00
32638;BME280;19045;52.268;10.506;2023-01-26T08:00:27;101366.38;;;-1.45;100.00
32638;BME280;19045;52.268;10.506;2023-01-26T08:02:55;101370.31;;;-1.49;100.00
32638;BME280;19045;52.268;10.506;2023-01-26T08:05:21;101359.97;;;-1.43;100.00
32638;BME280;19045;52.268;10.506;2023-01-26T08:07:48;101363.66;;;-1.28;100.00
32638;BME280;19045;52.268;10.506;2023-01-26T08:10:15;101353.06;;;-1.36;100.00
32638;BME280;19045;52.268;10.506;2023-01-26T08:12:42;101359.81;;;-1.41;100.00
32638;BME280;19045;52.268;10.506;2023-01-26T08:15:09;101364.41;;;-1.43;100.00
32638;BME280;19045;52.268;10.506;2023-01-26T08:17:36;101367.06;;;-1.35;100.00
32638;BME280;19045;52.268;10.506;2023-01-26T08:20:05;101354.72;;;-1.35;100.00
32638;BME280;19045;52.268;10.506;2023-01-26T08:22:32;101357.53;;;-1.36;100.00
32638;BME280;19045;52.268;10.506;2023-01-26T08:24:58;101367.91;;;-1.35;100.00
32638;BME280;19045;52.268;10.506;2023-01-26T08:27:25;101366.06;;;-1.42;100.00
32638;BME280;19045;52.268;10.506;2023-01-26T08:29:51;101363.34;;;-1.33;100.00
32638;BME280;19045;52.268;10.506;2023-01-26T08:32:18;101360.84;;;-1.34;100.00
32638;BME280;19045;52.268;10.506;2023-01-26T08:34:44;101357.06;;;-1.32;100.00
32638;BME280;19045;52.268;10.506;2023-01-26T08:37:12;101356.41;;;-1.34;100.00
32638;BME280;19045;52.268;10.506;2023-01-26T08:39:39;101363.59;;;-1.44;100.00
32638;BME280;19045;52.268;10.506;2023-01-26T08:42:05;101359.97;;;-1.43;100.00
32638;BME280;19045;52.268;10.506;2023-01-26T08:44:32;101352.09;;;-1.35;100.00
32638;BME280;19045;52.268;10.506;2023-01-26T08:46:59;101352.16;;;-1.27;100.00
32638;BME280;19045;52.268;10.506;2023-01-26T08:49:25;101342.78;;;-1.21;100.00
32638;BME280;19045;52.268;10.506;2023-01-26T08:51:52;101351.84;;;-1.16;100.00
32638;BME280;19045;52.268;10.506;2023-01-26T08:54:20;101358.78;;;-1.15;100.00
32638;BME280;19045;52.268;10.506;2023-01-26T08:56:46;101358.66;;;-1.13;100.00
32638;BME280;19045;52.268;10.506;2023-01-26T08:59:13;101362.38;;;-1.24;100.00
32638;BME280;19045;52.268;10.506;2023-01-26T09:01:39;101349.66;;;-1.28;100.00
32638;BME280;19045;52.268;10.506;2023-01-26T09:04:06;101360.41;;;-1.22;100.00
32638;BME280;19045;52.268;10.506;2023-01-26T09:06:32;101347.53;;;-1.33;100.00
32638;BME280;19045;52.268;10.506;2023-01-26T09:08:59;101351.47;;;-1.29;100.00
32638;BME280;19045;52.268;10.506;2023-01-26T09:11:27;101351.53;;;-1.21;100.00
32638;BME280;19045;52.268;10.506;2023-01-26T09:13:54;101352.03;;;-1.17;100.00
32638;BME280;19045;52.268;10.506;2023-01-26T09:16:22;101355.19;;;-1.14;100.00
32638;BME280;19045;52.268;10.506;2023-01-26T09:18:50;101351.06;;;-1.08;100.00
32638;BME280;19045;52.268;10.506;2023-01-26T09:21:17;101348.22;;;-1.23;100.00
32638;BME280;19045;52.268;10.506;2023-01-26T09:23:44;101356.13;;;-1.23;100.00
32638;BME280;19045;52.268;10.506;2023-01-26T09:26:10;101355.84;;;-1.12;100.00
32638;BME280;19045;52.268;10.506;2023-01-26T09:28:38;101360.44;;;-1.14;100.00
32638;BME280;19045;52.268;10.506;2023-01-26T09:31:07;101358.16;;;-1.09;100.00
32638;BME280;19045;52.268;10.506;2023-01-26T09:33:34;101346.44;;;-1.06;100.00
32638;BME280;19045;52.268;10.506;2023-01-26T09:36:02;101354.38;;;-1.06;100.00
32638;BME280;19045;52.268;10.506;2023-01-26T09:38:29;101353.88;;;-1.10;100.00
32638;BME280;19045;52.268;10.506;2023-01-26T09:41:03;101360.31;;;-1.04;100.00
32638;BME280;19045;52.268;10.506;2023-01-26T09:43:35;101358.50;;;-1.03;100.00
32638;BME280;19045;52.268;10.506;2023-01-26T09:46:16;101358.97;;;-1.08;100.00
32638;BME280;19045;52.268;10.506;2023-01-26T09:48:51;101360.44;;;-1.14;100.00
32638;BME280;19045;52.268;10.506;2023-01-26T09:51:25;101356.78;;;-1.21;100.00
32638;BME280;19045;52.268;10.506;2023-01-26T09:53:55;101353.50;;;-1.23;100.00
32638;BME280;19045;52.268;10.506;2023-01-26T09:56:25;101360.09;;;-1.19;100.00
32638;BME280;19045;52.268;10.506;2023-01-26T09:58:55;101362.50;;;-1.33;100.00
32638;BME280;19045;52.268;10.506;2023-01-26T10:01:29;101360.25;;;-1.20;100.00
32638;BME280;19045;52.268;10.506;2023-01-26T10:04:03;101352.41;;;-1.04;100.00
32638;BME280;19045;52.268;10.506;2023-01-26T10:06:30;101354.78;;;-0.93;100.00
32638;BME280;19045;52.268;10.506;2023-01-26T10:08:59;101360.53;;;-0.89;100.00
32638;BME280;19045;52.268;10.506;2023-01-26T10:11:29;101360.53;;;-0.89;100.00
32638;BME280;19045;52.268;10.506;2023-01-26T10:13:59;101356.59;;;-0.85;100.00
32638;BME280;19045;52.268;10.506;2023-01-26T10:16:31;101350.78;;;-0.97;100.00
32638;BME280;19045;52.268;10.506;2023-01-26T10:19:01;101351.78;;;-0.98;100.00
32638;BME280;19045;52.268;10.506;2023-01-26T10:21:31;101354.09;;;-0.95;100.00
32638;BME280;19045;52.268;10.506;2023-01-26T10:24:00;101347.22;;;-0.80;100.00
32638;BME280;19045;52.268;10.506;2023-01-26T10:26:30;101342.59;;;-0.78;100.00
32638;BME280;19045;52.268;10.506;2023-01-26T10:28:58;101342.47;;;-0.76;100.00
32638;BME280;19045;52.268;10.506;2023-01-26T10:31:27;101330.25;;;-0.69;100.00
32638;BME280;19045;52.268;10.506;2023-01-26T10:33:57;101332.88;;;-0.77;100.00
32638;BME280;19045;52.268;10.506;2023-01-26T10:36:24;101335.19;;;-0.66;100.00
32638;BME280;19045;52.268;10.506;2023-01-26T10:39:02;101337.66;;;-0.73;100.00
32638;BME280;19045;52.268;10.506;2023-01-26T10:41:29;101334.66;;;-0.86;100.00
32638;BME280;19045;52.268;10.506;2023-01-26T10:43:57;101324.16;;;-0.78;100.00
32638;BME280;19045;52.268;10.506;2023-01-26T10:46:26;101330.25;;;-0.77;100.00
32638;BME280;19045;52.268;10.506;2023-01-26T10:48:55;101328.25;;;-0.83;100.00
32638;BME280;19045;52.268;10.506;2023-01-26T10:51:25;101319.81;;;-0.95;100.00
32638;BME280;19045;52.268;10.506;2023-01-26T10:54:13;101323.59;;;-0.89;100.00
32638;BME280;19045;52.268;10.506;2023-01-26T10:56:43;101309.63;;;-0.82;100.00
32638;BME280;19045;52.268;10.506;2023-01-26T10:59:13;101301.25;;;-0.77;100.00
32638;BME280;19045;52.268;10.506;2023-01-26T11:01:52;101293.16;;;-0.84;100.00
32638;BME280;19045;52.268;10.506;2023-01-26T11:04:21;101301.03;;;-0.92;100.00
32638;BME280;19045;52.268;10.506;2023-01-26T11:06:48;101293.16;;;-0.84;100.00
32638;BME280;19045;52.268;10.506;2023-01-26T11:09:19;101289.72;;;-0.76;100.00
32638;BME280;19045;52.268;10.506;2023-01-26T11:11:58;101296.81;;;-0.61;100.00
32638;BME280;19045;52.268;10.506;2023-01-26T11:14:26;101294.47;;;-0.72;100.00
32638;BME280;19045;52.268;10.506;2023-01-26T11:16:57;101290.72;;;-0.61;100.00
32638;BME280;19045;52.268;10.506;2023-01-26T11:19:45;101283.28;;;-0.58;100.00
32638;BME280;19045;52.268;10.506;2023-01-26T11:22:17;101284.94;;;-0.48;100.00
32638;BME280;19045;52.268;10.506;2023-01-26T11:24:50;101274.22;;;-0.47;100.00
32638;BME280;19045;52.268;10.506;2023-01-26T11:27:27;101274.53;;;-0.58;100.00
32638;BME280;19045;52.268;10.506;2023-01-26T11:33:28;101276.69;;;-0.62;100.00
32638;BME280;19045;52.268;10.506;2023-01-26T11:36:04;101267.94;;;-0.46;100.00
32638;BME280;19045;52.268;10.506;2023-01-26T11:38:38;101263.19;;;-0.50;100.00
32638;BME280;19045;52.268;10.506;2023-01-26T11:41:24;101266.78;;;-0.35;100.00
32638;BME280;19045;52.268;10.506;2023-01-26T11:44:10;101265.66;;;-0.25;100.00
32638;BME280;19045;52.268;10.506;2023-01-26T11:46:59;101258.72;;;-0.18;100.00
32638;BME280;19045;52.268;10.506;2023-01-26T11:49:40;101265.66;;;-0.17;100.00
32638;BME280;19045;52.268;10.506;2023-01-26T11:52:15;101261.81;;;-0.06;100.00
32638;BME280;19045;52.268;10.506;2023-01-26T11:55:00;101260.69;;;-0.12;100.00
32638;BME280;19045;52.268;10.506;2023-01-26T11:57:34;101256.06;;;-0.18;100.00
32638;BME280;19045;52.268;10.506;2023-01-26T12:00:03;101253.59;;;-0.11;100.00
32638;BME280;19045;52.268;10.506;2023-01-26T12:02:32;101250.13;;;-0.04;100.00
32638;BME280;19045;52.268;10.506;2023-01-26T12:05:04;101247.94;;;0.08;100.00
32638;BME280;19045;52.268;10.506;2023-01-26T12:07:46;101242.19;;;-0.12;100.00
32638;BME280;19045;52.268;10.506;2023-01-26T12:10:22;101239.84;;;0.02;100.00
32638;BME280;19045;52.268;10.506;2023-01-26T12:12:53;101242.50;;;0.02;100.00
32638;BME280;19045;52.268;10.506;2023-01-26T12:15:23;101238.19;;;0.09;100.00
32638;BME280;19045;52.268;10.506;2023-01-26T12:17:57;101242.97;;;0.13;100.00
32638;BME280;19045;52.268;10.506;2023-01-26T12:20:28;101232.88;;;0.17;100.00
32638;BME280;19045;52.268;10.506;2023-01-26T12:23:02;101228.25;;;0.19;100.00
32638;BME280;19045;52.268;10.506;2023-01-26T12:25:33;101227.91;;;0.30;100.00
32638;BME280;19045;52.268;10.506;2023-01-26T12:28:13;101229.38;;;0.24;100.00
32638;BME280;19045;52.268;10.506;2023-01-26T12:30:47;101213.88;;;0.29;100.00
32638;BME280;19045;52.268;10.506;2023-01-26T12:33:17;101207.22;;;0.33;100.00
32638;BME280;19045;52.268;10.506;2023-01-26T12:35:56;101212.66;;;0.40;100.00
32638;BME280;19045;52.268;10.506;2023-01-26T12:38:38;101211.88;;;0.23;100.00
32638;BME280;19045;52.268;10.506;2023-01-26T12:41:12;101213.94;;;0.05;100.00
32638;BME280;19045;52.268;10.506;2023-01-26T12:43:54;101206.22;;;-0.05;100.00
32638;BME280;19045;52.268;10.506;2023-01-26T12:46:23;101198.94;;;-0.03;100.00
32638;BME280;19045;52.268;10.506;2023-01-26T12:48:53;101204.00;;;0.07;100.00
32638;BME280;19045;52.268;10.506;2023-01-26T12:51:24;101198.38;;;0.10;100.00
32638;BME280;19045;52.268;10.506;2023-01-26T12:53:57;101193.78;;;0.12;100.00